sensor_id;sensor_type;location;lat;lon;timestamp;pressure;altitude;pressure_sealevel;temperature;humidity
25610;BME280;13479;49.044;8.716;2023-04-26T04:01:56;99285.44;;;5.68;92.81
25610;BME280;13479;49.044;8.716;2023-04-26T04:04:21;99270.28;;;5.72;93.15
25610;BME280;13479;49.044;8.716;2023-04-26T04:06:46;99267.84;;;5.69;92.94
25610;BME280;13479;49.044;8.716;2023-04-26T04:09:11;99271.44;;;5.68;93.12
25610;BME280;13479;49.044;8.716;2023-04-26T04:11:37;99259.75;;;5.57;92.99
25610;BME280;13479;49.044;8.716;2023-04-26T04:14:02;99255.81;;;5.50;93.05
25610;BME280;13479;49.044;8.716;2023-04-26T04:16:27;99249.78;;;5.48;93.05
25610;BME280;13479;49.044;8.716;2023-04-26T04:18:53;99251.94;;;5.56;93.79
25610;BME280;13479;49.044;8.716;2023-04-26T04:21:18;99245.63;;;5.59;93.12
25610;BME280;13479;49.044;8.716;2023-04-26T04:23:43;99255.34;;;5.58;92.97
25610;BME280;13479;49.044;8.716;2023-04-26T04:26:09;99243.75;;;5.61;92.98
25610;BME280;13479;49.044;8.716;2023-04-26T04:28:36;99267.66;;;5.72;93.16
25610;BME280;13479;49.044;8.716;2023-04-26T04:31:02;99302.19;;;5.67;92.01
25610;BME280;13479;49.044;8.716;2023-04-26T04:33:27;99296.84;;;5.54;90.95
25610;BME280;13479;49.044;8.716;2023-04-26T04:35:53;99286.78;;;5.61;91.29
25610;BME280;13479;49.044;8.716;2023-04-26T04:38:19;99296.81;;;5.69;90.29
25610;BME280;13479;49.044;8.716;2023-04-26T04:40:47;99285.63;;;5.51;90.77
25610;BME280;13479;49.044;8.716;2023-04-26T04:43:14;99283.38;;;5.59;89.94
25610;BME280;13479;49.044;8.716;2023-04-26T04:45:39;99270.50;;;5.54;89.97
25610;BME280;13479;49.044;8.716;2023-04-26T04:48:05;99265.22;;;5.54;90.54
25610;BME280;13479;49.044;8.716;2023-04-26T04:50:30;99272.38;;;5.52;89.98
25610;BME280;13479;49.044;8.716;2023-04-26T04:52:56;99273.50;;;5.48;90.31
25610;BME280;13479;49.044;8.716;2023-04-26T04:55:21;99259.00;;;5.26;90.65
25610;BME280;13479;49.044;8.716;2023-04-26T04:57:47;99252.69;;;5.15;90.65
25610;BME280;13479;49.044;8.716;2023-04-26T05:00:12;99228.34;;;5.11;91.29
25610;BME280;13479;49.044;8.716;2023-04-26T05:02:38;99215.19;;;5.11;92.17
25610;BME280;13479;49.044;8.716;2023-04-26T05:05:03;99225.34;;;5.17;93.32
25610;BME280;13479;49.044;8.716;2023-04-26T05:07:32;99260.72;;;5.42;92.71
25610;BME280;13479;49.044;8.716;2023-04-26T05:09:58;99268.25;;;5.34;91.88
25610;BME280;13479;49.044;8.716;2023-04-26T05:12:24;99249.59;;;5.37;92.39
25610;BME280;13479;49.044;8.716;2023-04-26T05:14:49;99263.34;;;5.56;93.00
25610;BME280;13479;49.044;8.716;2023-04-26T05:17:14;99279.13;;;5.85;92.72
25610;BME280;13479;49.044;8.716;2023-04-26T05:19:40;99296.44;;;5.90;92.25
25610;BME280;13479;49.044;8.716;2023-04-26T05:22:05;99293.81;;;6.04;92.75
25610;BME280;13479;49.044;8.716;2023-04-26T05:24:30;99302.38;;;6.08;92.65
25610;BME280;13479;49.044;8.716;2023-04-26T05:26:59;99312.56;;;6.41;92.00
25610;BME280;13479;49.044;8.716;2023-04-26T05:29:28;99356.03;;;6.48;89.39
25610;BME280;13479;49.044;8.716;2023-04-26T05:31:55;99357.22;;;6.44;86.40
25610;BME280;13479;49.044;8.716;2023-04-26T05:34:20;99283.97;;;6.35;87.57
25610;BME280;13479;49.044;8.716;2023-04-26T05:36:46;99238.41;;;6.46;87.65
25610;BME280;13479;49.044;8.716;2023-04-26T05:39:11;99257.28;;;6.80;87.68
25610;BME280;13479;49.044;8.716;2023-04-26T05:41:36;99291.34;;;6.98;85.97
25610;BME280;13479;49.044;8.716;2023-04-26T05:44:02;99272.19;;;6.94;85.60
25610;BME280;13479;49.044;8.716;2023-04-26T05:46:27;99301.34;;;7.05;82.75
25610;BME280;13479;49.044;8.716;2023-04-26T05:48:52;99234.16;;;6.84;83.79
25610;BME280;13479;49.044;8.716;2023-04-26T05:51:17;99210.13;;;7.01;84.48
25610;BME280;13479;49.044;8.716;2023-04-26T05:53:43;99196.06;;;7.26;85.04
25610;BME280;13479;49.044;8.716;2023-04-26T05:56:08;99214.50;;;7.65;84.34
25610;BME280;13479;49.044;8.716;2023-04-26T05:58:33;99257.78;;;7.88;82.93
25610;BME280;13479;49.044;8.716;2023-04-26T06:00:59;99247.75;;;8.18;82.79
25610;BME280;13479;49.044;8.716;2023-04-26T06:03:24;99253.03;;;8.55;82.28
25610;BME280;13479;49.044;8.716;2023-04-26T06:05:49;99295.22;;;9.05;79.06
25610;BME280;13479;49.044;8.716;2023-04-26T06:08:15;99330.06;;;9.23;74.99
25610;BME280;13479;49.044;8.716;2023-04-26T06:10:40;99305.53;;;9.44;72.35
25610;BME280;13479;49.044;8.716;2023-04-26T06:13:05;99251.81;;;9.65;71.08
25610;BME280;13479;49.044;8.716;2023-04-26T06:15:31;99232.94;;;10.13;68.79
25610;BME280;13479;49.044;8.716;2023-04-26T06:17:56;99220.53;;;10.58;66.86
25610;BME280;13479;49.044;8.716;2023-04-26T06:20:22;99200.00;;;10.81;64.90
25610;BME280;13479;49.044;8.716;2023-04-26T06:22:47;99148.84;;;11.31;66.10
25610;BME280;13479;49.044;8.716;2023-04-26T06:25:12;99180.09;;;12.78;62.75
25610;BME280;13479;49.044;8.716;2023-04-26T06:27:38;99193.28;;;13.74;58.51
25610;BME280;13479;49.044;8.716;2023-04-26T06:30:05;99159.19;;;13.40;54.48
25610;BME280;13479;49.044;8.716;2023-04-26T06:32:30;99112.84;;;13.13;57.36
25610;BME280;13479;49.044;8.716;2023-04-26T06:34:56;99119.56;;;13.55;56.86
25610;BME280;13479;49.044;8.716;2023-04-26T06:37:21;99135.06;;;14.06;55.54
25610;BME280;13479;49.044;8.716;2023-04-26T06:39:46;99139.41;;;15.49;53.78
25610;BME280;13479;49.044;8.716;2023-04-26T06:42:11;99146.88;;;18.08;49.62
25610;BME280;13479;49.044;8.716;2023-04-26T06:44:37;99170.41;;;20.54;42.23
25610;BME280;13479;49.044;8.716;2023-04-26T06:47:02;99205.72;;;22.21;38.66
25610;BME280;13479;49.044;8.716;2023-04-26T06:49:27;99224.75;;;23.42;35.10
25610;BME280;13479;49.044;8.716;2023-04-26T06:51:52;99255.41;;;24.15;30.91
25610;BME280;13479;49.044;8.716;2023-04-26T06:54:18;99258.72;;;24.56;30.66
25610;BME280;13479;49.044;8.716;2023-04-26T06:56:44;99260.66;;;25.13;30.30
25610;BME280;13479;49.044;8.716;2023-04-26T06:59:09;99255.75;;;26.40;28.66
25610;BME280;13479;49.044;8.716;2023-04-26T07:01:35;99255.09;;;27.23;26.01
25610;BME280;13479;49.044;8.716;2023-04-26T07:04:04;99250.22;;;27.84;25.94
25610;BME280;13479;49.044;8.716;2023-04-26T07:06:31;99255.28;;;28.04;25.46
25610;BME280;13479;49.044;8.716;2023-04-26T07:08:57;99261.34;;;28.47;25.29
25610;BME280;13479;49.044;8.716;2023-04-26T07:11:23;99249.75;;;29.37;23.77
25610;BME280;13479;49.044;8.716;2023-04-26T07:13:48;99255.03;;;29.27;23.85
25610;BME280;13479;49.044;8.716;2023-04-26T07:16:13;99243.69;;;29.01;24.03
25610;BME280;13479;49.044;8.716;2023-04-26T07:18:39;99248.25;;;29.69;23.38
25610;BME280;13479;49.044;8.716;2023-04-26T07:21:05;99252.69;;;30.64;22.71
25610;BME280;13479;49.044;8.716;2023-04-26T07:23:31;99240.72;;;30.75;21.71
25610;BME280;13479;49.044;8.716;2023-04-26T07:25:56;99243.59;;;31.23;21.26
25610;BME280;13479;49.044;8.716;2023-04-26T07:28:21;99245.22;;;30.32;21.14
25610;BME280;13479;49.044;8.716;2023-04-26T07:30:47;99249.38;;;29.51;22.11
25610;BME280;13479;49.044;8.716;2023-04-26T07:33:12;99244.28;;;28.86;22.81
25610;BME280;13479;49.044;8.716;2023-04-26T07:35:37;99242.38;;;28.87;23.05
25610;BME280;13479;49.044;8.716;2023-04-26T07:38:02;99240.81;;;29.64;21.18
25610;BME280;13479;49.044;8.716;2023-04-26T07:40:28;99236.22;;;30.37;20.40
25610;BME280;13479;49.044;8.716;2023-04-26T07:42:54;99233.13;;;31.58;19.84
25610;BME280;13479;49.044;8.716;2023-04-26T07:45:20;99242.56;;;32.88;17.83
25610;BME280;13479;49.044;8.716;2023-04-26T07:47:45;99246.06;;;33.71;17.09
25610;BME280;13479;49.044;8.716;2023-04-26T07:50:10;99255.25;;;34.16;16.63
25610;BME280;13479;49.044;8.716;2023-04-26T07:52:36;99257.06;;;34.76;14.84
25610;BME280;13479;49.044;8.716;2023-04-26T07:55:02;99254.75;;;34.89;15.39
25610;BME280;13479;49.044;8.716;2023-04-26T07:57:27;99258.38;;;35.19;15.24
25610;BME280;13479;49.044;8.716;2023-04-26T07:59:52;99263.22;;;34.63;16.23
25610;BME280;13479;49.044;8.716;2023-04-26T08:02:17;99267.31;;;34.21;15.95
25610;BME280;13479;49.044;8.716;2023-04-26T08:04:47;99270.06;;;34.26;16.51
25610;BME280;13479;49.044;8.716;2023-04-26T08:07:14;99268.38;;;34.30;14.74
25610;BME280;13479;49.044;8.716;2023-04-26T08:09:39;99266.47;;;32.67;15.68
25610;BME280;13479;49.044;8.716;2023-04-26T08:12:05;99259.25;;;31.28;16.75
25610;BME280;13479;49.044;8.716;2023-04-26T08:14:30;99262.84;;;30.41;18.29
25610;BME280;13479;49.044;8.716;2023-04-26T08:16:56;99263.81;;;30.30;17.54
25610;BME280;13479;49.044;8.716;2023-04-26T08:19:21;99255.16;;;29.94;17.84
25610;BME280;13479;49.044;8.716;2023-04-26T08:21:47;99247.03;;;29.59;18.49
25610;BME280;13479;49.044;8.716;2023-04-26T08:24:12;99240.31;;;29.89;18.45
25610;BME280;13479;49.044;8.716;2023-04-26T08:26:37;99234.31;;;31.30;17.31
25610;BME280;13479;49.044;8.716;2023-04-26T08:29:02;99224.53;;;32.08;16.44
25610;BME280;13479;49.044;8.716;2023-04-26T08:31:28;99237.63;;;33.05;15.68
25610;BME280;13479;49.044;8.716;2023-04-26T08:33:53;99244.06;;;33.82;14.32
25610;BME280;13479;49.044;8.716;2023-04-26T08:36:18;99252.16;;;34.73;14.28
25610;BME280;13479;49.044;8.716;2023-04-26T08:38:44;99256.94;;;35.56;13.55
25610;BME280;13479;49.044;8.716;2023-04-26T08:41:12;99258.88;;;36.23;13.11
25610;BME280;13479;49.044;8.716;2023-04-26T08:43:39;99252.19;;;36.29;12.14
25610;BME280;13479;49.044;8.716;2023-04-26T08:46:06;99256.88;;;36.29;12.96
25610;BME280;13479;49.044;8.716;2023-04-26T08:48:34;99266.53;;;36.51;13.03
25610;BME280;13479;49.044;8.716;2023-04-26T08:51:00;99266.09;;;35.76;12.66
25610;BME280;13479;49.044;8.716;2023-04-26T08:53:26;99265.91;;;34.33;14.01
25610;BME280;13479;49.044;8.716;2023-04-26T08:55:53;99266.44;;;33.60;14.03
25610;BME280;13479;49.044;8.716;2023-04-26T08:58:19;99254.63;;;31.77;14.87
25610;BME280;13479;49.044;8.716;2023-04-26T09:00:46;99255.78;;;30.45;15.55
25610;BME280;13479;49.044;8.716;2023-04-26T09:03:11;99242.31;;;30.71;15.74
25610;BME280;13479;49.044;8.716;2023-04-26T09:05:40;99238.34;;;30.84;15.86
25610;BME280;13479;49.044;8.716;2023-04-26T09:08:19;99237.06;;;28.80;17.32
25610;BME280;13479;49.044;8.716;2023-04-26T09:10:46;99225.28;;;27.93;17.87
25610;BME280;13479;49.044;8.716;2023-04-26T09:13:11;99217.94;;;28.34;17.33
25610;BME280;13479;49.044;8.716;2023-04-26T09:15:37;99212.97;;;27.90;18.08
25610;BME280;13479;49.044;8.716;2023-04-26T09:18:19;99213.97;;;26.34;19.02
25610;BME280;13479;49.044;8.716;2023-04-26T09:21:00;99204.13;;;25.66;20.51
25610;BME280;13479;49.044;8.716;2023-04-26T09:23:26;99203.22;;;24.52;20.56
25610;BME280;13479;49.044;8.716;2023-04-26T09:25:51;99202.06;;;23.30;21.62
25610;BME280;13479;49.044;8.716;2023-04-26T09:28:21;99198.94;;;22.52;22.59
25610;BME280;13479;49.044;8.716;2023-04-26T09:30:47;99204.44;;;22.17;24.00
25610;BME280;13479;49.044;8.716;2023-04-26T09:33:12;99201.13;;;22.29;23.92
25610;BME280;13479;49.044;8.716;2023-04-26T09:35:39;99199.06;;;22.31;24.41
25610;BME280;13479;49.044;8.716;2023-04-26T09:38:14;99190.19;;;22.57;24.64
25610;BME280;13479;49.044;8.716;2023-04-26T09:40:44;99172.94;;;22.78;24.06
25610;BME280;13479;49.044;8.716;2023-04-26T09:43:18;99165.41;;;23.21;22.98
25610;BME280;13479;49.044;8.716;2023-04-26T09:48:25;99148.59;;;23.64;22.26
25610;BME280;13479;49.044;8.716;2023-04-26T09:50:54;99143.97;;;24.17;22.07
25610;BME280;13479;49.044;8.716;2023-04-26T09:53:30;99144.38;;;24.52;21.17
25610;BME280;13479;49.044;8.716;2023-04-26T09:55:56;99144.69;;;24.70;21.83
25610;BME280;13479;49.044;8.716;2023-04-26T09:58:22;99150.47;;;24.98;21.17
25610;BME280;13479;49.044;8.716;2023-04-26T10:00:50;99151.38;;;24.92;21.04
25610;BME280;13479;49.044;8.716;2023-04-26T10:03:17;99152.25;;;24.86;20.69
25610;BME280;13479;49.044;8.716;2023-04-26T10:05:43;99155.94;;;24.66;21.31
25610;BME280;13479;49.044;8.716;2023-04-26T10:08:09;99158.69;;;24.60;21.40
25610;BME280;13479;49.044;8.716;2023-04-26T10:10:34;99159.72;;;24.33;22.00
25610;BME280;13479;49.044;8.716;2023-04-26T10:13:01;99153.41;;;24.72;21.66
25610;BME280;13479;49.044;8.716;2023-04-26T10:15:27;99149.41;;;25.43;20.66
25610;BME280;13479;49.044;8.716;2023-04-26T10:17:53;99138.38;;;25.87;20.87
25610;BME280;13479;49.044;8.716;2023-04-26T10:20:19;99140.78;;;25.96;21.48
25610;BME280;13479;49.044;8.716;2023-04-26T10:22:51;99132.31;;;26.46;20.73
25610;BME280;13479;49.044;8.716;2023-04-26T10:25:17;99138.63;;;26.59;19.30
25610;BME280;13479;49.044;8.716;2023-04-26T10:30:15;99134.16;;;27.12;18.95
25610;BME280;13479;49.044;8.716;2023-04-26T10:35:31;99139.94;;;26.68;19.24
25610;BME280;13479;49.044;8.716;2023-04-26T10:40:28;99143.50;;;26.14;19.67
25610;BME280;13479;49.044;8.716;2023-04-26T10:45:41;99157.00;;;25.35;21.19
25610;BME280;13479;49.044;8.716;2023-04-26T10:53:47;99138.44;;;24.05;21.76
25610;BME280;13479;49.044;8.716;2023-04-26T10:58:48;99123.13;;;23.79;20.47
25610;BME280;13479;49.044;8.716;2023-04-26T11:01:17;99121.72;;;23.69;20.59
25610;BME280;13479;49.044;8.716;2023-04-26T11:04:00;99124.09;;;23.46;20.52
25610;BME280;13479;49.044;8.716;2023-04-26T11:06:47;99114.56;;;23.16;21.66
25610;BME280;13479;49.044;8.716;2023-04-26T11:09:36;99108.16;;;22.97;21.64
25610;BME280;13479;49.044;8.716;2023-04-26T11:12:12;99101.31;;;22.81;22.40
25610;BME280;13479;49.044;8.716;2023-04-26T11:14:39;99092.56;;;22.32;22.44
25610;BME280;13479;49.044;8.716;2023-04-26T11:17:06;99079.66;;;22.14;22.28
25610;BME280;13479;49.044;8.716;2023-04-26T11:19:32;99080.19;;;21.75;22.58
25610;BME280;13479;49.044;8.716;2023-04-26T11:21:58;99068.63;;;21.40;23.12
25610;BME280;13479;49.044;8.716;2023-04-26T11:24:31;99063.38;;;21.67;23.12
25610;BME280;13479;49.044;8.716;2023-04-26T11:26:57;99064.41;;;21.66;23.44
25610;BME280;13479;49.044;8.716;2023-04-26T11:29:23;99054.53;;;21.44;22.76
25610;BME280;13479;49.044;8.716;2023-04-26T11:31:51;99047.03;;;21.40;22.47
25610;BME280;13479;49.044;8.716;2023-04-26T11:34:34;99041.38;;;21.21;22.30
25610;BME280;13479;49.044;8.716;2023-04-26T11:37:03;99031.56;;;21.13;22.60
25610;BME280;13479;49.044;8.716;2023-04-26T11:39:35;99025.28;;;21.00;23.64
25610;BME280;13479;49.044;8.716;2023-04-26T11:42:04;99033.91;;;20.53;22.90
25610;BME280;13479;49.044;8.716;2023-04-26T11:44:30;99022.22;;;20.46;24.25
25610;BME280;13479;49.044;8.716;2023-04-26T11:46:56;99028.19;;;20.41;24.67
25610;BME280;13479;49.044;8.716;2023-04-26T11:49:21;99022.63;;;20.14;24.03
25610;BME280;13479;49.044;8.716;2023-04-26T11:51:47;99013.03;;;20.12;24.67
25610;BME280;13479;49.044;8.716;2023-04-26T11:54:26;99018.72;;;19.95;25.62
25610;BME280;13479;49.044;8.716;2023-04-26T11:56:52;99012.16;;;20.04;25.79
25610;BME280;13479;49.044;8.716;2023-04-26T11:59:23;99016.50;;;19.84;26.07
25610;BME280;13479;49.044;8.716;2023-04-26T12:01:49;99019.97;;;19.99;25.82
25610;BME280;13479;49.044;8.716;2023-04-26T12:04:16;99013.38;;;19.80;25.52
25610;BME280;13479;49.044;8.716;2023-04-26T12:06:43;99013.56;;;20.00;25.46
25610;BME280;13479;49.044;8.716;2023-04-26T12:09:08;99012.97;;;20.05;26.94
25610;BME280;13479;49.044;8.716;2023-04-26T12:11:35;99019.41;;;20.26;25.53
25610;BME280;13479;49.044;8.716;2023-04-26T12:14:01;99009.03;;;20.58;25.94
25610;BME280;13479;49.044;8.716;2023-04-26T12:16:26;99013.34;;;20.52;26.00
25610;BME280;13479;49.044;8.716;2023-04-26T12:18:53;99004.56;;;20.15;27.77
25610;BME280;13479;49.044;8.716;2023-04-26T12:21:19;99022.72;;;19.84;27.59
25610;BME280;13479;49.044;8.716;2023-04-26T12:23:44;99017.78;;;19.66;26.34
25610;BME280;13479;49.044;8.716;2023-04-26T12:26:12;99008.28;;;19.49;27.86
25610;BME280;13479;49.044;8.716;2023-04-26T12:28:38;98994.81;;;19.49;27.78
25610;BME280;13479;49.044;8.716;2023-04-26T12:31:03;99006.66;;;19.33;26.46
25610;BME280;13479;49.044;8.716;2023-04-26T12:33:29;99006.38;;;19.27;26.88
25610;BME280;13479;49.044;8.716;2023-04-26T12:35:55;98993.97;;;19.11;26.91
25610;BME280;13479;49.044;8.716;2023-04-26T12:38:22;98988.34;;;19.06;26.81
25610;BME280;13479;49.044;8.716;2023-04-26T12:40:47;98986.97;;;18.95;27.20
25610;BME280;13479;49.044;8.716;2023-04-26T12:43:12;98986.13;;;18.65;27.99
25610;BME280;13479;49.044;8.716;2023-04-26T12:45:38;98997.78;;;18.27;29.83
25610;BME280;13479;49.044;8.716;2023-04-26T12:48:03;98997.41;;;18.45;29.87
25610;BME280;13479;49.044;8.716;2023-04-26T12:50:29;98995.84;;;18.51;29.98
25610;BME280;13479;49.044;8.716;2023-04-26T12:52:54;98984.53;;;18.56;29.87
25610;BME280;13479;49.044;8.716;2023-04-26T12:55:19;98983.53;;;18.57;29.27
25610;BME280;13479;49.044;8.716;2023-04-26T12:57:45;98992.16;;;18.67;27.66
25610;BME280;13479;49.044;8.716;2023-04-26T13:00:12;98986.78;;;18.97;30.06
25610;BME280;13479;49.044;8.716;2023-04-26T13:02:38;98986.91;;;19.25;29.24
25610;BME280;13479;49.044;8.716;2023-04-26T13:05:04;98996.34;;;19.36;28.52
25610;BME280;13479;49.044;8.716;2023-04-26T13:07:32;98989.81;;;19.45;28.69
25610;BME280;13479;49.044;8.716;2023-04-26T13:10:01;98990.31;;;19.34;27.94
25610;BME280;13479;49.044;8.716;2023-04-26T13:12:27;98987.00;;;19.54;28.12
25610;BME280;13479;49.044;8.716;2023-04-26T13:14:53;98984.06;;;19.49;28.18
25610;BME280;13479;49.044;8.716;2023-04-26T13:17:19;98990.97;;;19.58;27.92
25610;BME280;13479;49.044;8.716;2023-04-26T13:19:45;98987.84;;;19.54;27.83
25610;BME280;13479;49.044;8.716;2023-04-26T13:22:10;98983.25;;;19.70;27.85
25610;BME280;13479;49.044;8.716;2023-04-26T13:24:36;98994.06;;;19.76;26.20
25610;BME280;13479;49.044;8.716;2023-04-26T13:27:02;98991.25;;;19.85;27.56
25610;BME280;13479;49.044;8.716;2023-04-26T13:29:27;99005.91;;;19.97;26.99
25610;BME280;13479;49.044;8.716;2023-04-26T13:31:53;99010.47;;;19.82;27.18
25610;BME280;13479;49.044;8.716;2023-04-26T13:34:18;98998.16;;;19.51;29.08
25610;BME280;13479;49.044;8.716;2023-04-26T13:36:43;98996.53;;;19.35;28.16
25610;BME280;13479;49.044;8.716;2023-04-26T13:39:09;98987.91;;;19.39;28.64
25610;BME280;13479;49.044;8.716;2023-04-26T13:41:34;98985.28;;;18.94;28.19
25610;BME280;13479;49.044;8.716;2023-04-26T13:44:01;98980.94;;;18.63;29.64
25610;BME280;13479;49.044;8.716;2023-04-26T13:46:27;98983.13;;;18.30;29.62
25610;BME280;13479;49.044;8.716;2023-04-26T13:48:52;98986.91;;;18.20;29.39
25610;BME280;13479;49.044;8.716;2023-04-26T13:51:18;98976.75;;;17.93;30.75
25610;BME280;13479;49.044;8.716;2023-04-26T13:53:43;98986.31;;;17.72;31.25
25610;BME280;13479;49.044;8.716;2023-04-26T13:56:09;98981.19;;;17.39;30.18
25610;BME280;13479;49.044;8.716;2023-04-26T13:58:34;98974.53;;;17.26;30.73
25610;BME280;13479;49.044;8.716;2023-04-26T14:01:01;98964.22;;;17.15;30.18
25610;BME280;13479;49.044;8.716;2023-04-26T14:03:26;98963.22;;;17.08;30.29
25610;BME280;13479;49.044;8.716;2023-04-26T14:05:51;98951.22;;;16.87;31.27
25610;BME280;13479;49.044;8.716;2023-04-26T14:08:17;98961.34;;;16.77;31.29
25610;BME280;13479;49.044;8.716;2023-04-26T14:10:42;98956.97;;;16.76;31.98
25610;BME280;13479;49.044;8.716;2023-04-26T14:13:07;98956.63;;;16.79;32.98
25610;BME280;13479;49.044;8.716;2023-04-26T14:15:32;98966.91;;;17.07;31.01
25610;BME280;13479;49.044;8.716;2023-04-26T14:17:58;98965.63;;;16.94;30.80
25610;BME280;13479;49.044;8.716;2023-04-26T14:20:23;98959.41;;;16.54;31.13
25610;BME280;13479;49.044;8.716;2023-04-26T14:22:48;98954.09;;;16.46;30.91
25610;BME280;13479;49.044;8.716;2023-04-26T14:25:14;98950.47;;;16.14;32.14
25610;BME280;13479;49.044;8.716;2023-04-26T14:27:39;98956.34;;;16.01;32.57
25610;BME280;13479;49.044;8.716;2023-04-26T14:30:05;98956.31;;;16.17;32.06
25610;BME280;13479;49.044;8.716;2023-04-26T14:32:31;98946.09;;;16.21;32.44
25610;BME280;13479;49.044;8.716;2023-04-26T14:34:57;98951.94;;;16.81;31.69
25610;BME280;13479;49.044;8.716;2023-04-26T14:37:22;98955.16;;;16.76;31.32
25610;BME280;13479;49.044;8.716;2023-04-26T14:39:48;98949.28;;;17.12;33.48
25610;BME280;13479;49.044;8.716;2023-04-26T14:42:14;98959.44;;;17.25;32.12
25610;BME280;13479;49.044;8.716;2023-04-26T14:44:39;98951.84;;;17.60;31.08
25610;BME280;13479;49.044;8.716;2023-04-26T14:47:04;98957.47;;;17.66;30.77
25610;BME280;13479;49.044;8.716;2023-04-26T14:49:30;98968.06;;;17.67;29.81
25610;BME280;13479;49.044;8.716;2023-04-26T14:51:55;98975.78;;;17.85;28.78
25610;BME280;13479;49.044;8.716;2023-04-26T14:54:20;98963.84;;;17.88;29.78
25610;BME280;13479;49.044;8.716;2023-04-26T14:56:46;98963.63;;;17.98;30.41
25610;BME280;13479;49.044;8.716;2023-04-26T14:59:13;98960.00;;;18.29;30.44
25610;BME280;13479;49.044;8.716;2023-04-26T15:01:38;98959.34;;;18.42;30.09
25610;BME280;13479;49.044;8.716;2023-04-26T15:04:04;98949.69;;;18.62;30.25
25610;BME280;13479;49.044;8.716;2023-04-26T15:06:29;98953.84;;;18.65;29.93
25610;BME280;13479;49.044;8.716;2023-04-26T15:08:57;98967.59;;;18.40;29.67
25610;BME280;13479;49.044;8.716;2023-04-26T15:11:23;98962.94;;;18.34;30.13
25610;BME280;13479;49.044;8.716;2023-04-26T15:13:48;98961.66;;;18.45;30.30
25610;BME280;13479;49.044;8.716;2023-04-26T15:16:13;98958.69;;;18.55;30.11
25610;BME280;13479;49.044;8.716;2023-04-26T15:18:40;98961.66;;;18.45;29.06
25610;BME280;13479;49.044;8.716;2023-04-26T15:21:05;98968.31;;;18.34;28.67
25610;BME280;13479;49.044;8.716;2023-04-26T15:23:30;98955.34;;;18.37;29.76
25610;BME280;13479;49.044;8.716;2023-04-26T15:26:03;98961.63;;;18.30;31.15
25610;BME280;13479;49.044;8.716;2023-04-26T15:28:28;98956.91;;;18.17;31.25
25610;BME280;13479;49.044;8.716;2023-04-26T15:31:00;98945.78;;;18.20;29.99
25610;BME280;13479;49.044;8.716;2023-04-26T15:33:26;98942.47;;;18.33;30.93
25610;BME280;13479;49.044;8.716;2023-04-26T15:35:51;98955.16;;;18.39;29.68
25610;BME280;13479;49.044;8.716;2023-04-26T15:38:16;98945.97;;;18.18;29.60
25610;BME280;13479;49.044;8.716;2023-04-26T15:40:42;98952.44;;;18.09;30.67
25610;BME280;13479;49.044;8.716;2023-04-26T15:43:07;98952.88;;;17.98;30.03
25610;BME280;13479;49.044;8.716;2023-04-26T15:45:34;98951.56;;;17.94;29.32
25610;BME280;13479;49.044;8.716;2023-04-26T15:47:59;98954.41;;;17.92;28.56
25610;BME280;13479;49.044;8.716;2023-04-26T15:50:25;98950.09;;;17.44;29.62
25610;BME280;13479;49.044;8.716;2023-04-26T15:52:50;98950.06;;;17.21;30.18
25610;BME280;13479;49.044;8.716;2023-04-26T15:55:15;98955.03;;;17.33;29.01
25610;BME280;13479;49.044;8.716;2023-04-26T15:57:42;98956.44;;;16.97;30.31
25610;BME280;13479;49.044;8.716;2023-04-26T16:00:07;98943.03;;;16.89;31.57
25610;BME280;13479;49.044;8.716;2023-04-26T16:02:33;98944.91;;;16.80;31.10
25610;BME280;13479;49.044;8.716;2023-04-26T16:04:58;98933.56;;;16.70;31.82
25610;BME280;13479;49.044;8.716;2023-04-26T16:07:24;98939.25;;;16.66;31.52
25610;BME280;13479;49.044;8.716;2023-04-26T16:09:49;98919.56;;;16.51;31.83
25610;BME280;13479;49.044;8.716;2023-04-26T16:12:15;98932.34;;;16.32;31.01
25610;BME280;13479;49.044;8.716;2023-04-26T16:14:40;98929.47;;;16.34;30.76
25610;BME280;13479;49.044;8.716;2023-04-26T16:17:05;98922.34;;;16.26;32.15
25610;BME280;13479;49.044;8.716;2023-04-26T16:19:30;98920.59;;;16.42;30.81
25610;BME280;13479;49.044;8.716;2023-04-26T16:21:56;98917.97;;;16.25;31.52
25610;BME280;13479;49.044;8.716;2023-04-26T16:24:21;98908.31;;;16.08;32.14
25610;BME280;13479;49.044;8.716;2023-04-26T16:26:46;98909.75;;;16.27;32.42
25610;BME280;13479;49.044;8.716;2023-04-26T16:29:12;98913.25;;;16.27;31.53
25610;BME280;13479;49.044;8.716;2023-04-26T16:31:38;98909.31;;;16.15;31.11
25610;BME280;13479;49.044;8.716;2023-04-26T16:34:03;98897.59;;;16.08;32.61
25610;BME280;13479;49.044;8.716;2023-04-26T16:36:29;98909.97;;;15.84;31.08
25610;BME280;13479;49.044;8.716;2023-04-26T16:38:55;98919.03;;;15.66;30.72
25610;BME280;13479;49.044;8.716;2023-04-26T16:41:21;98916.69;;;15.47;31.42
25610;BME280;13479;49.044;8.716;2023-04-26T16:43:47;98917.66;;;15.37;31.91
25610;BME280;13479;49.044;8.716;2023-04-26T16:46:13;98916.16;;;15.26;31.74
25610;BME280;13479;49.044;8.716;2023-04-26T16:48:39;98917.50;;;15.14;31.86
25610;BME280;13479;49.044;8.716;2023-04-26T16:51:05;98915.44;;;15.00;32.21
25610;BME280;13479;49.044;8.716;2023-04-26T16:53:31;98908.59;;;15.05;32.71
25610;BME280;13479;49.044;8.716;2023-04-26T16:55:57;98905.59;;;15.00;33.87
25610;BME280;13479;49.044;8.716;2023-04-26T16:58:23;98914.31;;;15.02;34.52
25610;BME280;13479;49.044;8.716;2023-04-26T17:00:49;98927.13;;;14.98;35.04
25610;BME280;13479;49.044;8.716;2023-04-26T17:03:15;98931.28;;;14.93;35.59
25610;BME280;13479;49.044;8.716;2023-04-26T17:05:42;98928.09;;;14.81;35.54
25610;BME280;13479;49.044;8.716;2023-04-26T17:08:07;98933.75;;;14.78;35.08
25610;BME280;13479;49.044;8.716;2023-04-26T17:10:34;98927.13;;;14.98;33.62
25610;BME280;13479;49.044;8.716;2023-04-26T17:13:01;98921.97;;;14.97;34.16
25610;BME280;13479;49.044;8.716;2023-04-26T17:15:27;98916.94;;;14.94;34.32
25610;BME280;13479;49.044;8.716;2023-04-26T17:17:52;98915.41;;;14.83;34.55
25610;BME280;13479;49.044;8.716;2023-04-26T17:20:17;98911.56;;;14.77;34.52